• Join FlightAware (Why Join?)
  • Login
  • US Flag 
12:07PM EDT


 

Airport Tracker/Info


-or-


 

Live Flight TrackerFlight Track Log ✈ SWA1802 ✈ 16-Jun-2013 ✈ KMDW - KLAX

Flight Track Log - Related Links

Times and Time Zones

All times are in EDT time to prevent confusion due to time zone crossing. See the SWA1802 flight status page for this flight to view local times or setup timezone preferences in your user account.

Time Position Orientation Groundspeed Altitude Reporting Facility
EDT Latitude Longitude Course Direction KTS MPH feet Rate Location/Type
06:42PM 41.7667 -87.7667 251° West 150 173 1,800  Level Chicago TRACON
06:43PM 41.7500 -87.8333 251° West 201 231 3,000 1,980 Climbing Chicago TRACON
06:44PM 41.7481 -87.9322 269° West 235 270 6,100 2,700 Climbing Chicago Center
06:45PM 41.7692 -88.0250 287° West 264 304 9,300 3,000 Climbing Chicago Center
06:46PM 41.7806 -88.1422 277° West 278 320 12,300 2,580 Climbing Chicago Center
06:48PM 41.7853 -88.2506 273° West 295 339 14,700 2,460 Climbing Chicago Center
06:49PM 41.7928 -88.3633 275° West 305 351 17,400 2,640 Climbing Chicago Center
06:50PM 41.7872 -88.4794 266° West 318 366 20,200 2,100 Climbing Chicago Center
06:51PM 41.7644 -88.5942 255° West 322 371 21,800 1,860 Climbing Chicago Center
06:52PM 41.7339 -88.7394 254° West 341 392 24,100 1,500 Climbing Chicago Center
06:53PM 41.7117 -88.8642 257° West 347 399 25,000 600 Climbing Chicago Center
06:54PM 41.6917 -89.0067 259° West 390 449 25,400 720 Climbing Chicago Center
06:55PM 41.6706 -89.1561 259° West 410 472 26,600 1,200 Climbing Chicago Center
06:56PM 41.6489 -89.3108 259° West 423 487 27,900 1,500 Climbing Chicago Center
06:57PM 41.6208 -89.4939 258° West 423 487 29,700 1,620 Climbing Chicago Center
06:58PM 41.5994 -89.6403 259° West 419 482 31,300 1,080 Climbing Chicago Center
06:59PM 41.5767 -89.7900 259° West 414 476 32,000 300 Climbing Chicago Center
07:00PM 41.5539 -89.9378 258° West 410 472 32,000 420 Level Chicago Center
07:01PM 41.5261 -90.1183 258° West 415 478 32,900 960 Climbing Chicago Center
07:02PM 41.5028 -90.2667 258° West 413 475 34,000 480 Climbing Chicago Center
07:03PM 41.4808 -90.4136 259° West 409 471 34,000  Level Chicago Center
07:04PM 41.4561 -90.5639 258° West 415 478 34,000  Level Chicago Center
07:05PM 41.4328 -90.7103 258° West 409 471 34,000  Level Chicago Center
07:06PM 41.4086 -90.8564 258° West 408 470 34,000  Level Chicago Center
07:07PM 41.3794 -91.0336 258° West 409 471 34,000  Level Chicago Center
07:08PM 41.3556 -91.1817 258° West 410 472 34,000  Level Chicago Center
07:09PM 41.3308 -91.3319 258° West 413 475 34,000  Level Chicago Center
07:10PM 41.3061 -91.4778 257° West 410 472 34,000  Level Chicago Center
07:11PM 41.2811 -91.6233 257° West 407 468 34,000  Level Chicago Center
07:12PM 41.2522 -91.8000 258° West 410 472 34,000  Level Chicago Center
07:13PM 41.2281 -91.9411 257° West 406 467 34,000  Level Chicago Center
07:14PM 41.2022 -92.0833 256° West 403 464 34,000  Level Chicago Center
07:15PM 41.1775 -92.2267 257° West 402 463 34,000  Level Chicago Center
07:16PM 41.1519 -92.3697 257° West 403 464 34,000  Level Chicago Center
07:18PM 41.1214 -92.5422 257° West 405 466 34,000  Level Chicago Center
07:19PM 41.0961 -92.6872 257° West 408 470 34,000  Level Chicago Center
07:20PM 41.0697 -92.8339 257° West 414 476 34,000  Level Chicago Center
07:21PM 41.0422 -92.9794 256° West 413 475 34,000  Level Chicago Center
07:22PM 41.0158 -93.1258 257° West 412 474 34,000  Level Minneapolis Center
07:23PM 40.9856 -93.2950 257° West 402 463 34,000  Level Minneapolis Center
07:24PM 40.9581 -93.4417 256° West 410 472 34,000  Level Minneapolis Center
07:25PM 40.9294 -93.5889 256° West 415 478 34,000 360 Level Minneapolis Center
07:26PM 40.9014 -93.7319 255° West 413 475 34,800 900 Climbing Minneapolis Center
07:27PM 40.8764 -93.8708 257° West 403 464 35,900 540 Climbing Minneapolis Center
07:28PM 40.8433 -94.0392 256° West 400 460 36,000  Climbing Minneapolis Center
07:29PM 40.8167 -94.1806 256° West 401 461 36,000  Level Minneapolis Center
07:30PM 40.7881 -94.3211 255° West 401 461 36,000  Level Minneapolis Center
07:31PM 40.7550 -94.4889 255° West 400 460 36,000  Level Minneapolis Center
07:32PM 40.7250 -94.6378 255° West 395 455 36,000  Level Minneapolis Center
07:33PM 40.6964 -94.7769 255° West 393 452 36,000  Level Minneapolis Center
07:34PM 40.6703 -94.9142 256° West 389 448 36,000  Level Minneapolis Center
07:35PM 40.6367 -95.0797 255° West 388 447 36,000  Level Minneapolis Center
07:36PM 40.6092 -95.2167 255° West 387 445 36,000  Level Minneapolis Center
07:37PM 40.5797 -95.3542 254° West 389 448 36,000  Level Minneapolis Center
07:38PM 40.5525 -95.4939 256° West 391 450 36,000  Level Minneapolis Center
07:39PM 40.5067 -95.6269 246° West 410 472 36,000  Level Minneapolis Center
07:40PM 40.4467 -95.7519 238° Southwest 405 466 36,000  Level Minneapolis Center
07:41PM 40.3750 -95.9053 239° Southwest 409 471 36,000  Level Minneapolis Center
07:42PM 40.3136 -96.0297 237° Southwest 407 468 36,000  Level Minneapolis Center
07:44PM 40.2519 -96.1550 237° Southwest 407 468 36,000  Level Minneapolis Center
07:45PM 40.1908 -96.2833 238° Southwest 410 472 36,000  Level Minneapolis Center
07:46PM 40.1303 -96.4133 239° Southwest 413 475 36,000  Level Minneapolis Center
07:47PM 40.0697 -96.5406 238° Southwest 413 475 36,000  Level Minneapolis Center
07:48PM 40.0119 -96.6683 239° Southwest 411 473 36,000  Level Minneapolis Center
07:49PM 39.9397 -96.8200 238° Southwest 410 472 36,000  Level Minneapolis Center
07:50PM 39.8800 -96.9414 237° Southwest 407 468 36,000  Level Minneapolis Center
07:50PM 39.8428 -97.0158 237° Southwest 404 465 36,000  Level Kansas City Center
07:51PM 39.7825 -97.1411 238° Southwest 407 468 36,000  Level Kansas City Center
07:52PM 39.7200 -97.2683 237° Southwest 415 478 36,000  Level Kansas City Center
07:53PM 39.6561 -97.3964 237° Southwest 417 480 36,000  Level Kansas City Center
07:54PM 39.5906 -97.5269 237° Southwest 427 491 36,000  Level Kansas City Center
07:55PM 39.5272 -97.6558 238° Southwest 426 490 36,000  Level Kansas City Center
07:57PM 39.4619 -97.7858 237° Southwest 428 493 36,000  Level Kansas City Center
07:58PM 39.3900 -97.9261 236° Southwest 425 489 36,000  Level Kansas City Center
07:59PM 39.3186 -98.0681 237° Southwest 422 486 36,000  Level Kansas City Center
08:00PM 39.2572 -98.1897 237° Southwest 422 486 36,000  Level Kansas City Center
08:01PM 39.1953 -98.3128 237° Southwest 421 484 36,000  Level Kansas City Center
08:02PM 39.1314 -98.4394 237° Southwest 422 486 36,000  Level Kansas City Center
08:03PM 39.0653 -98.5669 236° Southwest 425 489 36,000  Level Kansas City Center
08:04PM 38.9875 -98.7203 237° Southwest 428 493 36,000  Level Kansas City Center
08:05PM 38.9219 -98.8514 237° Southwest 435 501 36,000  Level Kansas City Center
08:06PM 38.8572 -98.9822 238° Southwest 435 501 36,000  Level Kansas City Center
08:07PM 38.7903 -99.1144 237° Southwest 440 506 36,000  Level Kansas City Center
08:08PM 38.7258 -99.2431 237° Southwest 431 496 36,000  Level Kansas City Center
08:09PM 38.6633 -99.3672 237° Southwest 420 483 36,000  Level Kansas City Center
08:10PM 38.6011 -99.4911 237° Southwest 415 478 36,000  Level Kansas City Center
08:11PM 38.5317 -99.6261 237° Southwest 415 478 36,000  Level Kansas City Center
08:12PM 38.4631 -99.7625 237° Southwest 412 474 36,000  Level Kansas City Center
08:13PM 38.4036 -99.8781 237° Southwest 409 471 36,000  Level Kansas City Center
08:14PM 38.3331 -100.0131 236° Southwest 409 471 36,000  Level Kansas City Center
08:15PM 38.2736 -100.1289 237° Southwest 409 471 36,000  Level Kansas City Center
08:16PM 38.2039 -100.2633 237° Southwest 408 470 36,000  Level Kansas City Center
08:17PM 38.1431 -100.3808 237° Southwest 412 474 36,000  Level Kansas City Center
08:18PM 38.0706 -100.5186 236° Southwest 419 482 36,000  Level Kansas City Center
08:19PM 38.0092 -100.6358 236° Southwest 419 482 36,000  Level Kansas City Center
08:20PM 37.9375 -100.7728 236° Southwest 419 482 36,000  Level Kansas City Center
08:21PM 37.8744 -100.8911 236° Southwest 424 488 36,000  Level Kansas City Center
08:22PM 37.8000 -101.0317 236° Southwest 436 502 36,000  Level Kansas City Center
08:23PM 37.7256 -101.1453 230° Southwest 439 505 36,000  Level Kansas City Center
08:24PM 37.6403 -101.2744 230° Southwest 438 504 36,000  Level Kansas City Center
08:25PM 37.5683 -101.3819 230° Southwest 426 490 36,000  Level Kansas City Center
08:26PM 37.4839 -101.5092 230° Southwest 424 488 36,000  Level Kansas City Center
08:27PM 37.4114 -101.6189 230° Southwest 426 490 36,000  Level Kansas City Center
08:28PM 37.3394 -101.7300 231° Southwest 428 493 36,000  Level Kansas City Center
08:29PM 37.2558 -101.8600 231° Southwest 428 493 36,000  Level Kansas City Center
08:30PM 37.2003 -101.9833 241° Southwest 430 495 36,000  Level Kansas City Center
08:32PM 37.1567 -102.1372 250° West 420 483 36,000  Level Kansas City Center
08:33PM 37.1214 -102.2703 252° West 420 483 36,000  Level Kansas City Center
08:33PM 37.0931 -102.3981 255° West 402 463 36,000  Level Albuquerque Center
08:34PM 37.0650 -102.5378 256° West 401 461 36,000  Level Albuquerque Center
08:35PM 37.0581 -102.6706 266° West 398 458 36,000  Level Albuquerque Center
08:37PM 37.0469 -102.8289 265° West 406 467 36,000  Level Albuquerque Center
08:38PM 37.0400 -102.9672 266° West 414 476 36,000  Level Albuquerque Center
08:39PM 37.0342 -103.1033 267° West 411 473 36,000  Level Albuquerque Center
08:40PM 37.0467 -103.2664 276° West 422 486 36,000  Level Albuquerque Center
08:41PM 37.0694 -103.4028 282° West 417 480 36,000  Level Albuquerque Center
08:42PM 37.1000 -103.5608 284° West 418 481 36,000  Level Albuquerque Center
08:43PM 37.1206 -103.6983 281° West 418 481 36,000  Level Albuquerque Center
08:43PM 37.1256 -103.7447 278° West 421 484 36,000  Level Denver Center
08:44PM 37.1344 -103.9075 274° West 417 480 36,000  Level Denver Center
08:45PM 37.1269 -104.0444 266° West 409 471 36,000  Level Denver Center
08:46PM 37.1153 -104.1356 261° West 411 473 36,000 540 Level Albuquerque Center
08:47PM 37.0958 -104.2969 261° West 416 479 37,000 960 Climbing Albuquerque Center
08:48PM 37.0806 -104.4314 262° West 411 473 38,000 720 Climbing Albuquerque Center
08:48PM 37.0775 -104.4544 261° West 406 467 38,000  Level Denver Center
08:49PM 37.0558 -104.6333 261° West 406 467 38,000  Level Denver Center
08:50PM 37.0403 -104.7658 262° West 404 465 38,000  Level Denver Center
08:51PM 37.0214 -104.9211 261° West 404 465 38,000  Level Denver Center
08:52PM 37.0047 -105.0519 261° West 400 460 38,000  Level Denver Center
08:53PM 36.9883 -105.1825 261° West 397 457 38,000  Level Denver Center
08:54PM 36.9689 -105.3333 261° West 393 452 38,000  Level Denver Center
08:55PM 36.9511 -105.4656 260° West 400 460 38,000  Level Denver Center
08:56PM 36.9328 -105.6183 262° West 399 459 38,000  Level Denver Center
08:57PM 36.9144 -105.7497 260° West 398 458 38,000  Level Denver Center
08:58PM 36.8981 -105.8822 261° West 402 463 38,000  Level Denver Center
08:59PM 36.8778 -106.0342 261° West 397 457 38,000  Level Denver Center
09:01PM 36.8617 -106.1644 261° West 397 457 38,000  Level Denver Center
09:02PM 36.8414 -106.3178 261° West 396 456 38,000  Level Denver Center
09:03PM 36.8222 -106.4461 259° West 395 455 38,000  Level Denver Center
09:04PM 36.8033 -106.5986 261° West 398 458 38,000  Level Denver Center
09:05PM 36.7844 -106.7281 260° West 397 457 38,000  Level Denver Center
09:06PM 36.7650 -106.8583 259° West 399 459 38,000  Level Denver Center
09:07PM 36.7439 -107.0119 260° West 403 464 38,000  Level Denver Center
09:08PM 36.7244 -107.1433 260° West 405 466 38,000  Level Denver Center
09:09PM 36.7033 -107.2969 260° West 403 464 38,000  Level Denver Center
09:10PM 36.6842 -107.4306 260° West 408 470 38,000  Level Denver Center
09:11PM 36.6608 -107.5856 259° West 408 470 38,000  Level Denver Center
09:12PM 36.6411 -107.7181 260° West 407 468 38,000  Level Denver Center
09:13PM 36.6219 -107.8497 260° West 404 465 38,000  Level Denver Center
09:14PM 36.5989 -108.0042 260° West 406 467 38,000  Level Denver Center
09:15PM 36.5794 -108.1336 259° West 402 463 38,000  Level Denver Center
09:16PM 36.5558 -108.2853 259° West 401 461 38,000  Level Denver Center
09:17PM 36.5372 -108.4158 260° West 401 461 38,000  Level Denver Center
09:18PM 36.5139 -108.5672 259° West 402 463 38,000  Level Denver Center
09:19PM 36.4928 -108.6967 259° West 401 461 38,000  Level Denver Center
09:20PM 36.4722 -108.8264 259° West 402 463 38,000  Level Denver Center
09:21PM 36.4489 -108.9756 259° West 398 458 38,000  Level Denver Center
09:22PM 36.4286 -109.1025 259° West 396 456 38,000  Level Denver Center
09:23PM 36.4036 -109.2528 258° West 399 459 38,000  Level Denver Center
09:24PM 36.3747 -109.4256 258° West 402 463 38,000  Level Denver Center
09:25PM 36.3531 -109.5547 258° West 401 461 38,000  Level Denver Center
09:26PM 36.3319 -109.6847 259° West 402 463 38,000  Level Denver Center
09:27PM 36.3067 -109.8358 258° West 402 463 38,000  Level Denver Center
09:28PM 36.2850 -109.9658 258° West 402 463 38,000  Level Denver Center
09:29PM 36.2589 -110.1156 258° West 401 461 38,000  Level Denver Center
09:30PM 36.2367 -110.2547 259° West 400 460 38,000  Level Denver Center
09:31PM 36.2128 -110.3883 258° West 398 458 38,000  Level Denver Center
09:33PM 36.1897 -110.5208 258° West 396 456 38,000  Level Denver Center
09:34PM 36.1669 -110.6547 258° West 397 457 38,000  Level Denver Center
09:35PM 36.1436 -110.7878 258° West 396 456 38,000  Level Denver Center
09:36PM 36.1197 -110.9200 257° West 396 456 38,000  Level Denver Center
09:37PM 36.0961 -111.0519 258° West 394 453 38,000  Level Denver Center
09:38PM 36.0742 -111.1831 258° West 392 451 38,000  Level Denver Center
09:39PM 36.0450 -111.3397 257° West 391 450 38,000  Level Denver Center
09:40PM 36.0219 -111.4694 258° West 388 447 38,000  Level Denver Center
09:41PM 35.9983 -111.6000 257° West 390 449 38,000  Level Denver Center
09:41PM 35.9869 -111.6528 255° West 388 447 38,000  Level Los Angeles Center
09:42PM 35.9633 -111.7833 257° West 389 448 38,000  Level Los Angeles Center
09:43PM 35.9392 -111.9131 257° West 389 448 38,000  Level Los Angeles Center
09:44PM 35.9117 -112.0619 257° West 390 449 38,000  Level Los Angeles Center
09:45PM 35.8922 -112.1650 257° West 389 448 38,000  Level Los Angeles Center
09:47PM 35.8578 -112.3206 255° West 395 455 38,000  Level Los Angeles Center
09:48PM 35.8061 -112.4675 247° West 393 452 38,000  Level Los Angeles Center
09:49PM 35.7644 -112.5900 247° West 392 451 38,000  Level Los Angeles Center
09:50PM 35.7233 -112.7125 248° West 391 450 38,000  Level Los Angeles Center
09:51PM 35.6758 -112.8497 247° West 393 452 38,000  Level Los Angeles Center
09:52PM 35.6325 -112.9756 247° West 389 448 38,000  Level Los Angeles Center
09:53PM 35.5908 -113.0969 247° West 385 443 38,000  Level Los Angeles Center
09:54PM 35.5394 -113.2411 246° West 383 441 38,000  Level Los Angeles Center
09:55PM 35.4967 -113.3678 248° West 395 455 38,000  Level Los Angeles Center
09:56PM 35.4553 -113.4847 247° West 393 452 38,000  Level Los Angeles Center
09:57PM 35.4131 -113.6042 247° West 389 448 38,000  Level Los Angeles Center
09:58PM 35.3700 -113.7244 246° West 388 447 38,000  Level Los Angeles Center
09:59PM 35.3281 -113.8439 247° West 388 447 38,000  Level Los Angeles Center
10:00PM 35.2819 -113.9739 247° West 388 447 38,000  Level Los Angeles Center
10:01PM 35.2375 -114.0964 246° West 391 450 38,000  Level Los Angeles Center
10:02PM 35.1853 -114.2433 247° West 393 452 38,000  Level Los Angeles Center
10:03PM 35.1511 -114.3394 247° West 388 447 38,000  Level Los Angeles Center
10:04PM 35.0989 -114.4847 246° West 388 447 38,000  Level Los Angeles Center
10:05PM 35.0619 -114.5839 246° West 394 453 38,000  Level Los Angeles Center
10:06PM 35.0083 -114.7306 246° West 393 452 38,000  Level Los Angeles Center
10:07PM 34.9642 -114.8522 246° West 391 450 38,000  Level Los Angeles Center
10:08PM 34.9208 -114.9731 246° West 390 449 38,000  Level Los Angeles Center
10:09PM 34.8761 -115.0917 245° Southwest 387 445 38,000  Level Los Angeles Center
10:10PM 34.8311 -115.2139 246° West 393 452 38,000  Level Los Angeles Center
10:11PM 34.7786 -115.3594 246° West 391 450 38,000 -540 Level Los Angeles Center
10:12PM 34.7322 -115.4808 245° Southwest 395 455 37,000 -960 Descending Los Angeles Center
10:13PM 34.6861 -115.6033 245° Southwest 395 455 36,100 -960 Descending Los Angeles Center
10:14PM 34.6408 -115.7261 246° West 398 458 35,100 -900 Descending Los Angeles Center
10:16PM 34.5942 -115.8494 245° Southwest 400 460 34,100 -960 Descending Los Angeles Center
10:17PM 34.5369 -115.9992 245° Southwest 406 467 33,000 -1,020 Descending Los Angeles Center
10:18PM 34.4883 -116.1256 245° Southwest 411 473 32,000 -1,020 Descending Los Angeles Center
10:19PM 34.4411 -116.2492 245° Southwest 407 468 31,000 -1,140 Descending Los Angeles Center
10:20PM 34.3839 -116.3997 245° Southwest 404 465 29,700 -1,140 Descending Los Angeles Center
10:21PM 34.3350 -116.5208 244° Southwest 408 470 28,700 -1,140 Descending Los Angeles Center
10:22PM 34.2903 -116.6386 245° Southwest 394 453 27,400 -1,680 Descending Los Angeles Center
10:23PM 34.2456 -116.7539 245° Southwest 383 441 25,300 -2,040 Descending Los Angeles Center
10:24PM 34.2017 -116.8672 245° Southwest 375 432 23,300 -1,980 Descending Los Angeles Center
10:25PM 34.1589 -116.9767 245° Southwest 365 420 21,300 -2,100 Descending Los Angeles Center
10:26PM 34.1000 -117.1167 243° Southwest 370 426 19,000 -2,220 Descending Southern California TRACON
10:27PM 34.0667 -117.2000 244° Southwest 389 448 17,100 -2,460 Descending Southern California TRACON
10:28PM 34.0333 -117.3333 253° West 380 437 14,300 -2,460 Descending Southern California TRACON
10:29PM 34.0333 -117.4667 270° West 365 420 12,200 -1,800 Descending Southern California TRACON
10:30PM 34.0333 -117.5667 270° West 337 388 10,700 -1,080 Descending Southern California TRACON
10:31PM 34.0167 -117.6833 260° West 277 319 10,100 -960 Descending Southern California TRACON
10:32PM 34.0167 -117.7833 270° West 275 316 8,800 -1,200 Descending Southern California TRACON
10:33PM 34.0000 -117.8667 256° West 272 313 7,700 -1,200 Descending Southern California TRACON
10:34PM 34.0000 -117.9500 270° West 267 307 6,600 -1,020 Descending Southern California TRACON
10:35PM 33.9833 -118.0333 256° West 232 267 5,700 -900 Descending Southern California TRACON
10:36PM 33.9833 -118.1000 270° West 223 257 4,900 -840 Descending Southern California TRACON
10:36PM 33.9811 -118.1256 264° West 225 259 4,600 -960 Descending Los Angeles Center
10:37PM 33.9750 -118.1853 263° West 224 258 3,600 -1,200 Descending Los Angeles Center
10:38PM 33.9653 -118.2756 263° West 204 235 2,200 -1,140 Descending Los Angeles Center
10:39PM 33.9597 -118.3300 263° West 183 211 1,300 -840 Descending Los Angeles Center
10:40PM 33.9556 -118.3767 264° West 159 183 500 -600 Descending Los Angeles Center
10:41PM 33.9506 -118.4286 263° West 151 174 100 -420 Descending Los Angeles Center
10:43PM 33.9425 -118.4081 259° West  Level Estimated